Lery, Canada
Current Conditions -  °F | °C
As of 8:00 PM on Friday 21 Nov 2014 (Local Time) from CYUL Reporting Station
Broken Clouds Broken Clouds  
Wind Chill:   Ceiling: 5200
Heat Index: 19°   Visibility: 15mi
Dew Point:   Wind: 12mph
Humidity: 58%   Direction: 240°WSW
Pressure: 30.34"   Gusts: NA
Location:  45.33°N, 73.82°W
Report Text: CYUL 220100Z 24010KT 15SM BKN052 BKN090 M07/M14 A3034 RMK SC5AC2 SLP277
Loading
Personal Weather Stations






























Interactive Weather Map New forecast layout! Learn more

10-Day Weather Forecast

Advertisements
Track Severe Weather on mobile